Terminal Aerodrome Forecast
Issued by NWS

Home | Current Version | Previous Version | Text Only | Print | Product List | Glossary On
Versions: 1 2 3 4 5 6 7 8 9 10 11 12 13 14 15 16
000
FTUS43 KMQT 011100
TAFIWD
TAF
KIWD 011131Z 0112/0212 20007KT 3SM SHRA BR OVC015
     FM011400 27005KT 3SM -SHRA BR OVC008
     FM011500 29009KT P6SM BKN015
     FM011900 28012G20KT P6SM SCT025
     FM020000 27008KT P6SM SCT200
      AMD NOT SKED=

USA.gov is the U.S. government's official web portal to all federal, state and local government web resources and services.